sensor_id;sensor_type;location;lat;lon;timestamp;temperature;humidity
14357;DHT22;7262;48.764;9.166;2024-02-15T00:02:09;10.70;99.90
14357;DHT22;7262;48.764;9.166;2024-02-15T00:04:36;10.70;99.90
14357;DHT22;7262;48.764;9.166;2024-02-15T00:07:05;10.70;99.90
14357;DHT22;7262;48.764;9.166;2024-02-15T00:09:33;10.70;99.90
14357;DHT22;7262;48.764;9.166;2024-02-15T00:12:00;10.70;99.90
14357;DHT22;7262;48.764;9.166;2024-02-15T00:14:27;10.70;99.90
14357;DHT22;7262;48.764;9.166;2024-02-15T00:16:54;10.70;99.90
14357;DHT22;7262;48.764;9.166;2024-02-15T00:19:22;10.70;99.90
14357;DHT22;7262;48.764;9.166;2024-02-15T00:21:49;10.60;99.90
14357;DHT22;7262;48.764;9.166;2024-02-15T00:24:16;10.60;99.90
14357;DHT22;7262;48.764;9.166;2024-02-15T00:26:43;10.60;99.90
14357;DHT22;7262;48.764;9.166;2024-02-15T00:29:10;10.60;99.90
14357;DHT22;7262;48.764;9.166;2024-02-15T00:31:37;10.70;99.90
14357;DHT22;7262;48.764;9.166;2024-02-15T00:34:05;10.70;99.90
14357;DHT22;7262;48.764;9.166;2024-02-15T00:36:36;10.70;99.90
14357;DHT22;7262;48.764;9.166;2024-02-15T00:39:02;10.70;99.90
14357;DHT22;7262;48.764;9.166;2024-02-15T00:41:31;10.70;99.90
14357;DHT22;7262;48.764;9.166;2024-02-15T00:43:59;10.70;99.90
14357;DHT22;7262;48.764;9.166;2024-02-15T00:46:25;10.70;99.90
14357;DHT22;7262;48.764;9.166;2024-02-15T00:48:54;10.80;99.90
14357;DHT22;7262;48.764;9.166;2024-02-15T00:51:21;10.80;99.90
14357;DHT22;7262;48.764;9.166;2024-02-15T00:53:49;10.70;99.90
14357;DHT22;7262;48.764;9.166;2024-02-15T00:56:16;10.70;99.90
14357;DHT22;7262;48.764;9.166;2024-02-15T00:58:43;10.70;99.90
14357;DHT22;7262;48.764;9.166;2024-02-15T01:01:09;10.70;99.90
14357;DHT22;7262;48.764;9.166;2024-02-15T01:03:37;10.70;99.90
14357;DHT22;7262;48.764;9.166;2024-02-15T01:06:04;10.60;99.90
14357;DHT22;7262;48.764;9.166;2024-02-15T01:08:30;10.60;99.90
14357;DHT22;7262;48.764;9.166;2024-02-15T01:10:59;10.60;99.90
14357;DHT22;7262;48.764;9.166;2024-02-15T01:13:27;10.60;99.90
14357;DHT22;7262;48.764;9.166;2024-02-15T01:15:54;10.60;99.90
14357;DHT22;7262;48.764;9.166;2024-02-15T01:18:21;10.60;99.90
14357;DHT22;7262;48.764;9.166;2024-02-15T01:20:48;10.60;99.90
14357;DHT22;7262;48.764;9.166;2024-02-15T01:23:16;10.60;99.90
14357;DHT22;7262;48.764;9.166;2024-02-15T01:25:43;10.60;99.90
14357;DHT22;7262;48.764;9.166;2024-02-15T01:28:12;10.60;99.90
14357;DHT22;7262;48.764;9.166;2024-02-15T01:30:39;10.60;99.90
14357;DHT22;7262;48.764;9.166;2024-02-15T01:33:09;10.60;99.90
14357;DHT22;7262;48.764;9.166;2024-02-15T01:35:36;10.60;99.90
14357;DHT22;7262;48.764;9.166;2024-02-15T01:38:03;10.60;99.90
14357;DHT22;7262;48.764;9.166;2024-02-15T01:40:30;10.60;99.90
14357;DHT22;7262;48.764;9.166;2024-02-15T01:42:57;10.50;99.90
14357;DHT22;7262;48.764;9.166;2024-02-15T01:45:27;10.50;99.90
14357;DHT22;7262;48.764;9.166;2024-02-15T01:47:54;10.40;99.90
14357;DHT22;7262;48.764;9.166;2024-02-15T01:50:22;10.30;99.90
14357;DHT22;7262;48.764;9.166;2024-02-15T01:52:49;10.30;99.90
14357;DHT22;7262;48.764;9.166;2024-02-15T01:55:16;10.20;99.90
14357;DHT22;7262;48.764;9.166;2024-02-15T01:57:44;10.20;99.90
14357;DHT22;7262;48.764;9.166;2024-02-15T02:00:11;10.10;99.90
14357;DHT22;7262;48.764;9.166;2024-02-15T02:02:41;10.00;99.90
14357;DHT22;7262;48.764;9.166;2024-02-15T02:05:08;10.00;99.90
14357;DHT22;7262;48.764;9.166;2024-02-15T02:07:35;9.90;99.90
14357;DHT22;7262;48.764;9.166;2024-02-15T02:10:02;9.90;99.90
14357;DHT22;7262;48.764;9.166;2024-02-15T02:12:29;9.80;99.90
14357;DHT22;7262;48.764;9.166;2024-02-15T02:14:56;9.70;99.90
14357;DHT22;7262;48.764;9.166;2024-02-15T02:17:23;9.60;99.90
14357;DHT22;7262;48.764;9.166;2024-02-15T02:19:51;9.60;99.90
14357;DHT22;7262;48.764;9.166;2024-02-15T02:22:18;9.50;99.90
14357;DHT22;7262;48.764;9.166;2024-02-15T02:25:01;9.40;99.90
14357;DHT22;7262;48.764;9.166;2024-02-15T02:27:32;9.40;99.90
14357;DHT22;7262;48.764;9.166;2024-02-15T02:29:58;9.30;99.90
14357;DHT22;7262;48.764;9.166;2024-02-15T02:32:25;9.30;99.90
14357;DHT22;7262;48.764;9.166;2024-02-15T02:34:53;9.20;99.90
14357;DHT22;7262;48.764;9.166;2024-02-15T02:37:23;9.10;99.90
14357;DHT22;7262;48.764;9.166;2024-02-15T02:39:50;9.00;99.90
14357;DHT22;7262;48.764;9.166;2024-02-15T02:42:20;9.00;99.90
14357;DHT22;7262;48.764;9.166;2024-02-15T02:44:48;8.90;99.90
14357;DHT22;7262;48.764;9.166;2024-02-15T02:47:14;8.90;99.90
14357;DHT22;7262;48.764;9.166;2024-02-15T02:49:42;8.80;99.90
14357;DHT22;7262;48.764;9.166;2024-02-15T02:52:08;8.70;99.90
14357;DHT22;7262;48.764;9.166;2024-02-15T02:54:35;8.70;99.90
14357;DHT22;7262;48.764;9.166;2024-02-15T04:08:28;7.90;99.90
14357;DHT22;7262;48.764;9.166;2024-02-15T04:10:55;7.90;99.90
14357;DHT22;7262;48.764;9.166;2024-02-15T04:13:23;7.90;99.90
14357;DHT22;7262;48.764;9.166;2024-02-15T04:15:49;8.00;99.90
14357;DHT22;7262;48.764;9.166;2024-02-15T04:18:18;8.10;99.90
14357;DHT22;7262;48.764;9.166;2024-02-15T04:20:45;8.10;99.90
14357;DHT22;7262;48.764;9.166;2024-02-15T04:23:14;8.20;99.90
14357;DHT22;7262;48.764;9.166;2024-02-15T04:25:42;8.30;99.90
14357;DHT22;7262;48.764;9.166;2024-02-15T04:28:12;8.20;99.90
14357;DHT22;7262;48.764;9.166;2024-02-15T04:30:38;8.20;99.90
14357;DHT22;7262;48.764;9.166;2024-02-15T04:33:06;8.30;99.90
14357;DHT22;7262;48.764;9.166;2024-02-15T04:35:33;8.30;99.90
14357;DHT22;7262;48.764;9.166;2024-02-15T04:38:00;8.30;99.90
14357;DHT22;7262;48.764;9.166;2024-02-15T04:40:29;8.40;99.90
14357;DHT22;7262;48.764;9.166;2024-02-15T04:42:57;8.20;99.90
14357;DHT22;7262;48.764;9.166;2024-02-15T04:45:24;8.40;99.90
14357;DHT22;7262;48.764;9.166;2024-02-15T04:47:51;8.40;99.90
14357;DHT22;7262;48.764;9.166;2024-02-15T04:50:19;8.50;99.90
14357;DHT22;7262;48.764;9.166;2024-02-15T04:52:46;8.50;99.90
14357;DHT22;7262;48.764;9.166;2024-02-15T04:55:13;8.50;99.90
14357;DHT22;7262;48.764;9.166;2024-02-15T04:57:41;8.60;99.90
14357;DHT22;7262;48.764;9.166;2024-02-15T05:00:09;8.60;99.90
14357;DHT22;7262;48.764;9.166;2024-02-15T05:02:38;8.70;99.90
14357;DHT22;7262;48.764;9.166;2024-02-15T05:05:06;8.70;99.90
14357;DHT22;7262;48.764;9.166;2024-02-15T05:07:33;8.70;99.90
14357;DHT22;7262;48.764;9.166;2024-02-15T05:10:00;8.80;99.90
14357;DHT22;7262;48.764;9.166;2024-02-15T05:12:31;8.80;99.90
14357;DHT22;7262;48.764;9.166;2024-02-15T05:14:58;8.80;99.90
14357;DHT22;7262;48.764;9.166;2024-02-15T05:17:27;8.80;99.90
14357;DHT22;7262;48.764;9.166;2024-02-15T05:19:55;8.90;99.90
14357;DHT22;7262;48.764;9.166;2024-02-15T05:22:24;8.90;99.90
14357;DHT22;7262;48.764;9.166;2024-02-15T05:24:54;8.90;99.90
14357;DHT22;7262;48.764;9.166;2024-02-15T05:27:20;8.90;99.90
14357;DHT22;7262;48.764;9.166;2024-02-15T05:29:50;9.00;99.90
14357;DHT22;7262;48.764;9.166;2024-02-15T05:32:18;9.00;99.90
14357;DHT22;7262;48.764;9.166;2024-02-15T05:34:47;9.10;99.90
14357;DHT22;7262;48.764;9.166;2024-02-15T05:37:13;9.10;99.90
14357;DHT22;7262;48.764;9.166;2024-02-15T05:39:41;9.20;99.90
14357;DHT22;7262;48.764;9.166;2024-02-15T05:42:08;9.20;99.90
14357;DHT22;7262;48.764;9.166;2024-02-15T05:44:35;9.20;99.90
14357;DHT22;7262;48.764;9.166;2024-02-15T05:47:02;9.20;99.90
14357;DHT22;7262;48.764;9.166;2024-02-15T05:49:29;9.20;99.90
14357;DHT22;7262;48.764;9.166;2024-02-15T05:51:57;9.30;99.90
14357;DHT22;7262;48.764;9.166;2024-02-15T05:54:24;9.30;99.90
14357;DHT22;7262;48.764;9.166;2024-02-15T05:56:51;9.30;99.90
14357;DHT22;7262;48.764;9.166;2024-02-15T05:59:19;9.40;99.90
14357;DHT22;7262;48.764;9.166;2024-02-15T06:01:48;9.30;99.90
14357;DHT22;7262;48.764;9.166;2024-02-15T06:04:14;9.30;99.90
14357;DHT22;7262;48.764;9.166;2024-02-15T06:06:42;9.40;99.90
14357;DHT22;7262;48.764;9.166;2024-02-15T06:09:10;9.40;99.90
14357;DHT22;7262;48.764;9.166;2024-02-15T06:11:37;9.50;99.90
14357;DHT22;7262;48.764;9.166;2024-02-15T06:14:04;9.50;99.90
14357;DHT22;7262;48.764;9.166;2024-02-15T06:16:31;9.40;99.90
14357;DHT22;7262;48.764;9.166;2024-02-15T06:18:58;9.50;99.90
14357;DHT22;7262;48.764;9.166;2024-02-15T06:21:25;9.50;99.90
14357;DHT22;7262;48.764;9.166;2024-02-15T06:23:53;9.40;99.90
14357;DHT22;7262;48.764;9.166;2024-02-15T06:26:22;9.30;99.90
14357;DHT22;7262;48.764;9.166;2024-02-15T06:28:49;9.20;99.90
14357;DHT22;7262;48.764;9.166;2024-02-15T06:31:33;9.30;99.90
14357;DHT22;7262;48.764;9.166;2024-02-15T06:34:17;9.20;99.90
14357;DHT22;7262;48.764;9.166;2024-02-15T06:37:01;9.30;99.90
14357;DHT22;7262;48.764;9.166;2024-02-15T06:39:46;9.40;99.90
14357;DHT22;7262;48.764;9.166;2024-02-15T06:42:15;9.40;99.90
14357;DHT22;7262;48.764;9.166;2024-02-15T06:44:43;9.40;99.90
14357;DHT22;7262;48.764;9.166;2024-02-15T06:47:10;9.40;99.90
14357;DHT22;7262;48.764;9.166;2024-02-15T06:49:38;9.40;99.90
14357;DHT22;7262;48.764;9.166;2024-02-15T06:52:06;9.50;99.90
14357;DHT22;7262;48.764;9.166;2024-02-15T06:54:33;9.40;99.90
14357;DHT22;7262;48.764;9.166;2024-02-15T06:57:01;9.40;99.90
14357;DHT22;7262;48.764;9.166;2024-02-15T06:59:29;9.50;99.90
14357;DHT22;7262;48.764;9.166;2024-02-15T07:01:57;9.30;99.90
14357;DHT22;7262;48.764;9.166;2024-02-15T07:06:57;9.40;99.90
14357;DHT22;7262;48.764;9.166;2024-02-15T07:09:44;9.50;99.90
14357;DHT22;7262;48.764;9.166;2024-02-15T07:12:11;9.40;99.90
14357;DHT22;7262;48.764;9.166;2024-02-15T07:14:40;9.50;99.90
14357;DHT22;7262;48.764;9.166;2024-02-15T07:17:07;9.40;99.90
14357;DHT22;7262;48.764;9.166;2024-02-15T07:19:33;9.40;99.90
14357;DHT22;7262;48.764;9.166;2024-02-15T07:22:05;9.50;99.90
14357;DHT22;7262;48.764;9.166;2024-02-15T07:24:32;9.60;99.90
14357;DHT22;7262;48.764;9.166;2024-02-15T07:26:59;9.60;99.90
14357;DHT22;7262;48.764;9.166;2024-02-15T07:29:26;9.70;99.90
14357;DHT22;7262;48.764;9.166;2024-02-15T07:31:55;9.70;99.90
14357;DHT22;7262;48.764;9.166;2024-02-15T07:34:22;9.80;99.90
14357;DHT22;7262;48.764;9.166;2024-02-15T07:36:51;9.90;99.90
14357;DHT22;7262;48.764;9.166;2024-02-15T07:39:18;10.00;99.90
14357;DHT22;7262;48.764;9.166;2024-02-15T07:41:48;10.20;99.90
14357;DHT22;7262;48.764;9.166;2024-02-15T07:44:15;10.30;99.90
14357;DHT22;7262;48.764;9.166;2024-02-15T07:46:43;10.50;99.90
14357;DHT22;7262;48.764;9.166;2024-02-15T07:49:10;10.60;99.90
14357;DHT22;7262;48.764;9.166;2024-02-15T07:51:37;10.70;99.90
14357;DHT22;7262;48.764;9.166;2024-02-15T07:54:04;10.90;99.90
14357;DHT22;7262;48.764;9.166;2024-02-15T07:56:31;11.00;99.90
14357;DHT22;7262;48.764;9.166;2024-02-15T07:58:58;11.20;99.90
14357;DHT22;7262;48.764;9.166;2024-02-15T08:01:25;11.20;99.90
14357;DHT22;7262;48.764;9.166;2024-02-15T08:03:56;11.50;99.90
14357;DHT22;7262;48.764;9.166;2024-02-15T08:06:24;11.60;99.90
14357;DHT22;7262;48.764;9.166;2024-02-15T08:08:53;11.70;99.90
14357;DHT22;7262;48.764;9.166;2024-02-15T08:11:20;11.90;99.90
14357;DHT22;7262;48.764;9.166;2024-02-15T08:13:47;11.90;99.90
14357;DHT22;7262;48.764;9.166;2024-02-15T08:16:15;12.00;99.90
14357;DHT22;7262;48.764;9.166;2024-02-15T08:18:42;12.00;99.90
14357;DHT22;7262;48.764;9.166;2024-02-15T10:08:50;14.40;99.90
14357;DHT22;7262;48.764;9.166;2024-02-15T10:11:17;14.40;99.90
14357;DHT22;7262;48.764;9.166;2024-02-15T10:13:45;14.40;99.90
14357;DHT22;7262;48.764;9.166;2024-02-15T10:16:16;14.50;99.90
14357;DHT22;7262;48.764;9.166;2024-02-15T10:18:44;14.70;99.90
14357;DHT22;7262;48.764;9.166;2024-02-15T10:21:11;14.80;99.90
14357;DHT22;7262;48.764;9.166;2024-02-15T10:23:56;15.00;99.90
14357;DHT22;7262;48.764;9.166;2024-02-15T10:26:30;15.10;99.90
14357;DHT22;7262;48.764;9.166;2024-02-15T10:29:07;15.30;99.90
14357;DHT22;7262;48.764;9.166;2024-02-15T10:31:37;15.30;99.90
14357;DHT22;7262;48.764;9.166;2024-02-15T10:34:05;15.30;99.90
14357;DHT22;7262;48.764;9.166;2024-02-15T10:36:33;15.40;99.90
14357;DHT22;7262;48.764;9.166;2024-02-15T10:39:17;15.70;99.90
14357;DHT22;7262;48.764;9.166;2024-02-15T10:41:45;15.70;99.90
14357;DHT22;7262;48.764;9.166;2024-02-15T10:44:14;15.70;99.90
14357;DHT22;7262;48.764;9.166;2024-02-15T10:46:42;15.60;99.90
14357;DHT22;7262;48.764;9.166;2024-02-15T10:49:10;15.60;99.90
14357;DHT22;7262;48.764;9.166;2024-02-15T10:51:36;15.70;99.90
14357;DHT22;7262;48.764;9.166;2024-02-15T10:54:08;16.00;99.90
14357;DHT22;7262;48.764;9.166;2024-02-15T10:56:43;16.10;99.90
14357;DHT22;7262;48.764;9.166;2024-02-15T10:59:11;16.30;99.90
14357;DHT22;7262;48.764;9.166;2024-02-15T11:01:41;16.70;99.90
14357;DHT22;7262;48.764;9.166;2024-02-15T11:04:09;17.10;99.90
14357;DHT22;7262;48.764;9.166;2024-02-15T11:06:41;17.50;99.90
14357;DHT22;7262;48.764;9.166;2024-02-15T11:09:09;18.50;99.90
14357;DHT22;7262;48.764;9.166;2024-02-15T11:11:36;19.50;99.90
14357;DHT22;7262;48.764;9.166;2024-02-15T11:14:24;20.10;99.90
14357;DHT22;7262;48.764;9.166;2024-02-15T11:16:51;20.70;99.90
14357;DHT22;7262;48.764;9.166;2024-02-15T11:22:07;21.60;99.90
14357;DHT22;7262;48.764;9.166;2024-02-15T11:24:36;21.80;99.90
14357;DHT22;7262;48.764;9.166;2024-02-15T11:27:04;21.70;99.90
14357;DHT22;7262;48.764;9.166;2024-02-15T13:04:53;19.70;99.90
14357;DHT22;7262;48.764;9.166;2024-02-15T13:07:23;19.30;99.90
14357;DHT22;7262;48.764;9.166;2024-02-15T13:09:50;19.20;99.90
14357;DHT22;7262;48.764;9.166;2024-02-15T13:12:17;19.00;99.90
14357;DHT22;7262;48.764;9.166;2024-02-15T13:48:25;18.90;99.90
14357;DHT22;7262;48.764;9.166;2024-02-15T13:50:55;19.10;99.90
14357;DHT22;7262;48.764;9.166;2024-02-15T13:53:22;19.50;99.90
14357;DHT22;7262;48.764;9.166;2024-02-15T13:55:49;20.00;99.90
14357;DHT22;7262;48.764;9.166;2024-02-15T13:58:17;19.80;99.90
14357;DHT22;7262;48.764;9.166;2024-02-15T14:00:44;19.80;99.90
14357;DHT22;7262;48.764;9.166;2024-02-15T14:03:11;19.90;99.90
14357;DHT22;7262;48.764;9.166;2024-02-15T14:05:43;19.80;99.90
14357;DHT22;7262;48.764;9.166;2024-02-15T14:08:11;19.50;99.90
14357;DHT22;7262;48.764;9.166;2024-02-15T14:10:38;19.10;99.90
14357;DHT22;7262;48.764;9.166;2024-02-15T14:13:05;19.10;99.90
14357;DHT22;7262;48.764;9.166;2024-02-15T14:15:33;19.00;99.90
14357;DHT22;7262;48.764;9.166;2024-02-15T14:18:02;19.10;99.90
14357;DHT22;7262;48.764;9.166;2024-02-15T14:20:29;19.10;99.90
14357;DHT22;7262;48.764;9.166;2024-02-15T14:22:57;19.00;99.90
14357;DHT22;7262;48.764;9.166;2024-02-15T14:25:28;19.00;99.90
14357;DHT22;7262;48.764;9.166;2024-02-15T14:27:56;19.00;99.90
14357;DHT22;7262;48.764;9.166;2024-02-15T14:30:26;18.90;99.90
14357;DHT22;7262;48.764;9.166;2024-02-15T14:33:10;18.90;99.90
14357;DHT22;7262;48.764;9.166;2024-02-15T14:35:40;18.90;99.90
14357;DHT22;7262;48.764;9.166;2024-02-15T14:38:12;18.90;99.90
14357;DHT22;7262;48.764;9.166;2024-02-15T14:40:41;19.00;99.90
14357;DHT22;7262;48.764;9.166;2024-02-15T14:43:09;18.90;99.90
14357;DHT22;7262;48.764;9.166;2024-02-15T14:45:38;18.90;99.90
14357;DHT22;7262;48.764;9.166;2024-02-15T14:48:07;19.10;99.90
14357;DHT22;7262;48.764;9.166;2024-02-15T14:50:35;19.30;99.90
14357;DHT22;7262;48.764;9.166;2024-02-15T14:53:02;19.70;99.90
14357;DHT22;7262;48.764;9.166;2024-02-15T14:55:30;20.30;99.90
14357;DHT22;7262;48.764;9.166;2024-02-15T14:57:56;20.40;99.90
14357;DHT22;7262;48.764;9.166;2024-02-15T15:00:24;20.30;99.90
14357;DHT22;7262;48.764;9.166;2024-02-15T15:02:52;20.20;99.90
14357;DHT22;7262;48.764;9.166;2024-02-15T15:05:22;20.00;99.90
14357;DHT22;7262;48.764;9.166;2024-02-15T15:08:06;20.10;99.90
14357;DHT22;7262;48.764;9.166;2024-02-15T15:10:52;19.90;99.90
14357;DHT22;7262;48.764;9.166;2024-02-15T15:13:36;19.50;99.90
14357;DHT22;7262;48.764;9.166;2024-02-15T15:16:03;19.50;99.90
14357;DHT22;7262;48.764;9.166;2024-02-15T15:18:32;19.20;99.90
14357;DHT22;7262;48.764;9.166;2024-02-15T15:20:59;19.10;99.90
14357;DHT22;7262;48.764;9.166;2024-02-15T15:23:26;19.10;99.90
14357;DHT22;7262;48.764;9.166;2024-02-15T15:25:57;19.00;99.90
14357;DHT22;7262;48.764;9.166;2024-02-15T15:28:24;18.90;99.90
14357;DHT22;7262;48.764;9.166;2024-02-15T15:30:51;18.60;99.90
14357;DHT22;7262;48.764;9.166;2024-02-15T15:33:26;18.10;99.90
14357;DHT22;7262;48.764;9.166;2024-02-15T15:35:56;17.90;99.90
14357;DHT22;7262;48.764;9.166;2024-02-15T15:38:23;17.70;99.90
14357;DHT22;7262;48.764;9.166;2024-02-15T15:40:52;17.60;99.90
14357;DHT22;7262;48.764;9.166;2024-02-15T15:43:20;17.50;99.90
14357;DHT22;7262;48.764;9.166;2024-02-15T15:45:47;17.30;99.90
14357;DHT22;7262;48.764;9.166;2024-02-15T15:48:17;17.20;99.90
14357;DHT22;7262;48.764;9.166;2024-02-15T15:50:44;17.10;99.90
14357;DHT22;7262;48.764;9.166;2024-02-15T15:53:11;17.00;99.90
14357;DHT22;7262;48.764;9.166;2024-02-15T15:55:37;16.90;99.90
14357;DHT22;7262;48.764;9.166;2024-02-15T15:58:04;16.90;99.90
14357;DHT22;7262;48.764;9.166;2024-02-15T16:00:33;16.80;99.90
14357;DHT22;7262;48.764;9.166;2024-02-15T16:03:01;16.60;99.90
14357;DHT22;7262;48.764;9.166;2024-02-15T16:05:30;16.70;99.90
14357;DHT22;7262;48.764;9.166;2024-02-15T16:26:06;15.60;99.90
14357;DHT22;7262;48.764;9.166;2024-02-15T16:28:33;15.60;99.90
14357;DHT22;7262;48.764;9.166;2024-02-15T17:19:31;13.70;99.90
14357;DHT22;7262;48.764;9.166;2024-02-15T17:21:58;13.80;99.90
14357;DHT22;7262;48.764;9.166;2024-02-15T17:24:26;13.60;99.90
14357;DHT22;7262;48.764;9.166;2024-02-15T17:26:53;13.60;99.90
14357;DHT22;7262;48.764;9.166;2024-02-15T17:29:20;13.60;99.90
14357;DHT22;7262;48.764;9.166;2024-02-15T17:31:49;13.50;99.90
14357;DHT22;7262;48.764;9.166;2024-02-15T17:34:16;13.50;99.90
14357;DHT22;7262;48.764;9.166;2024-02-15T17:36:44;13.40;99.90
14357;DHT22;7262;48.764;9.166;2024-02-15T17:39:13;13.40;99.90
14357;DHT22;7262;48.764;9.166;2024-02-15T17:41:42;13.40;99.90
14357;DHT22;7262;48.764;9.166;2024-02-15T17:44:09;13.30;99.90
14357;DHT22;7262;48.764;9.166;2024-02-15T17:46:35;13.30;99.90
14357;DHT22;7262;48.764;9.166;2024-02-15T17:49:03;13.10;99.90
14357;DHT22;7262;48.764;9.166;2024-02-15T17:51:32;13.20;99.90
14357;DHT22;7262;48.764;9.166;2024-02-15T17:54:01;13.10;99.90
14357;DHT22;7262;48.764;9.166;2024-02-15T17:56:28;13.00;99.90
14357;DHT22;7262;48.764;9.166;2024-02-15T17:58:57;13.00;99.90
14357;DHT22;7262;48.764;9.166;2024-02-15T18:01:24;13.00;99.90
14357;DHT22;7262;48.764;9.166;2024-02-15T18:03:52;12.90;99.90
14357;DHT22;7262;48.764;9.166;2024-02-15T18:08:49;12.90;99.90
14357;DHT22;7262;48.764;9.166;2024-02-15T18:11:17;12.80;99.90
14357;DHT22;7262;48.764;9.166;2024-02-15T18:13:44;12.70;99.90
14357;DHT22;7262;48.764;9.166;2024-02-15T18:16:11;12.80;99.90
14357;DHT22;7262;48.764;9.166;2024-02-15T18:18:40;12.70;99.90
14357;DHT22;7262;48.764;9.166;2024-02-15T18:21:07;12.70;99.90
14357;DHT22;7262;48.764;9.166;2024-02-15T18:23:34;12.60;99.90
14357;DHT22;7262;48.764;9.166;2024-02-15T18:26:01;12.50;99.90
14357;DHT22;7262;48.764;9.166;2024-02-15T18:28:29;12.50;99.90
14357;DHT22;7262;48.764;9.166;2024-02-15T18:30:57;12.50;99.90
14357;DHT22;7262;48.764;9.166;2024-02-15T18:33:23;12.50;99.90
14357;DHT22;7262;48.764;9.166;2024-02-15T18:35:52;12.50;99.90
14357;DHT22;7262;48.764;9.166;2024-02-15T18:38:20;12.50;99.90
14357;DHT22;7262;48.764;9.166;2024-02-15T18:40:49;12.30;99.90
14357;DHT22;7262;48.764;9.166;2024-02-15T18:43:17;12.50;99.90
14357;DHT22;7262;48.764;9.166;2024-02-15T18:45:47;12.40;99.90
14357;DHT22;7262;48.764;9.166;2024-02-15T18:48:14;12.30;99.90
14357;DHT22;7262;48.764;9.166;2024-02-15T18:50:43;12.20;99.90
14357;DHT22;7262;48.764;9.166;2024-02-15T18:53:11;12.20;99.90
14357;DHT22;7262;48.764;9.166;2024-02-15T18:55:40;12.20;99.90
14357;DHT22;7262;48.764;9.166;2024-02-15T18:58:07;12.20;99.90
14357;DHT22;7262;48.764;9.166;2024-02-15T19:00:33;12.10;99.90
14357;DHT22;7262;48.764;9.166;2024-02-15T19:03:04;12.00;99.90
14357;DHT22;7262;48.764;9.166;2024-02-15T19:05:31;12.00;99.90
14357;DHT22;7262;48.764;9.166;2024-02-15T19:07:59;12.00;99.90
14357;DHT22;7262;48.764;9.166;2024-02-15T19:10:26;11.80;99.90
14357;DHT22;7262;48.764;9.166;2024-02-15T19:12:53;11.90;99.90
14357;DHT22;7262;48.764;9.166;2024-02-15T19:15:20;11.80;99.90
14357;DHT22;7262;48.764;9.166;2024-02-15T19:17:49;11.90;99.90
14357;DHT22;7262;48.764;9.166;2024-02-15T19:20:18;11.90;99.90
14357;DHT22;7262;48.764;9.166;2024-02-15T19:22:45;11.80;99.90
14357;DHT22;7262;48.764;9.166;2024-02-15T19:25:13;11.90;99.90
14357;DHT22;7262;48.764;9.166;2024-02-15T19:27:43;11.90;99.90
14357;DHT22;7262;48.764;9.166;2024-02-15T19:30:11;11.90;99.90
14357;DHT22;7262;48.764;9.166;2024-02-15T19:32:38;11.80;99.90
14357;DHT22;7262;48.764;9.166;2024-02-15T19:35:05;11.80;99.90
14357;DHT22;7262;48.764;9.166;2024-02-15T19:37:33;11.80;99.90
14357;DHT22;7262;48.764;9.166;2024-02-15T19:40:00;11.80;99.90
14357;DHT22;7262;48.764;9.166;2024-02-15T19:42:29;11.80;99.90
14357;DHT22;7262;48.764;9.166;2024-02-15T19:44:57;11.70;99.90
14357;DHT22;7262;48.764;9.166;2024-02-15T19:47:26;11.70;99.90
14357;DHT22;7262;48.764;9.166;2024-02-15T19:49:53;11.60;99.90
14357;DHT22;7262;48.764;9.166;2024-02-15T19:52:20;11.80;99.90
14357;DHT22;7262;48.764;9.166;2024-02-15T19:54:49;11.70;99.90
14357;DHT22;7262;48.764;9.166;2024-02-15T19:57:16;11.70;99.90
14357;DHT22;7262;48.764;9.166;2024-02-15T19:59:45;11.60;99.90
14357;DHT22;7262;48.764;9.166;2024-02-15T20:02:12;11.60;99.90
14357;DHT22;7262;48.764;9.166;2024-02-15T20:04:39;11.50;99.90
14357;DHT22;7262;48.764;9.166;2024-02-15T20:07:06;11.60;99.90
14357;DHT22;7262;48.764;9.166;2024-02-15T20:09:33;11.50;99.90
14357;DHT22;7262;48.764;9.166;2024-02-15T20:12:02;11.50;99.90
14357;DHT22;7262;48.764;9.166;2024-02-15T20:14:29;11.50;99.90
14357;DHT22;7262;48.764;9.166;2024-02-15T20:16:56;11.50;99.90
14357;DHT22;7262;48.764;9.166;2024-02-15T20:19:25;11.50;99.90
14357;DHT22;7262;48.764;9.166;2024-02-15T20:21:52;11.50;99.90
14357;DHT22;7262;48.764;9.166;2024-02-15T20:24:19;11.40;99.90
14357;DHT22;7262;48.764;9.166;2024-02-15T20:26:47;11.40;99.90
14357;DHT22;7262;48.764;9.166;2024-02-15T20:29:20;11.40;99.90
14357;DHT22;7262;48.764;9.166;2024-02-15T20:31:49;11.30;99.90
14357;DHT22;7262;48.764;9.166;2024-02-15T20:34:16;11.30;99.90
14357;DHT22;7262;48.764;9.166;2024-02-15T20:36:45;11.40;99.90
14357;DHT22;7262;48.764;9.166;2024-02-15T20:39:12;11.30;99.90
14357;DHT22;7262;48.764;9.166;2024-02-15T20:41:41;11.40;99.90
14357;DHT22;7262;48.764;9.166;2024-02-15T20:44:09;11.40;99.90
14357;DHT22;7262;48.764;9.166;2024-02-15T20:46:38;11.30;99.90
14357;DHT22;7262;48.764;9.166;2024-02-15T20:49:05;11.30;99.90
14357;DHT22;7262;48.764;9.166;2024-02-15T20:51:32;11.30;99.90
14357;DHT22;7262;48.764;9.166;2024-02-15T20:54:00;11.30;99.90
14357;DHT22;7262;48.764;9.166;2024-02-15T20:56:27;11.40;99.90
14357;DHT22;7262;48.764;9.166;2024-02-15T20:58:55;11.30;99.90
14357;DHT22;7262;48.764;9.166;2024-02-15T21:01:21;11.30;99.90
14357;DHT22;7262;48.764;9.166;2024-02-15T21:03:50;11.30;99.90
14357;DHT22;7262;48.764;9.166;2024-02-15T21:06:17;11.30;99.90
14357;DHT22;7262;48.764;9.166;2024-02-15T21:08:47;11.40;99.90
14357;DHT22;7262;48.764;9.166;2024-02-15T21:11:16;11.40;99.90
14357;DHT22;7262;48.764;9.166;2024-02-15T21:13:43;11.30;99.90
14357;DHT22;7262;48.764;9.166;2024-02-15T21:16:13;11.40;99.90
14357;DHT22;7262;48.764;9.166;2024-02-15T21:18:41;11.40;99.90
14357;DHT22;7262;48.764;9.166;2024-02-15T21:21:09;11.30;99.90
14357;DHT22;7262;48.764;9.166;2024-02-15T21:23:37;11.20;99.90
14357;DHT22;7262;48.764;9.166;2024-02-15T21:26:04;11.30;99.90
14357;DHT22;7262;48.764;9.166;2024-02-15T21:28:31;11.20;99.90
14357;DHT22;7262;48.764;9.166;2024-02-15T21:30:58;11.30;99.90
14357;DHT22;7262;48.764;9.166;2024-02-15T21:33:26;11.20;99.90
14357;DHT22;7262;48.764;9.166;2024-02-15T21:35:52;11.20;99.90
14357;DHT22;7262;48.764;9.166;2024-02-15T21:38:20;11.20;99.90
14357;DHT22;7262;48.764;9.166;2024-02-15T21:40:47;11.10;99.90
14357;DHT22;7262;48.764;9.166;2024-02-15T21:43:14;11.10;99.90
14357;DHT22;7262;48.764;9.166;2024-02-15T21:45:45;10.90;99.90
14357;DHT22;7262;48.764;9.166;2024-02-15T21:48:12;10.90;99.90
14357;DHT22;7262;48.764;9.166;2024-02-15T21:50:39;10.80;99.90
14357;DHT22;7262;48.764;9.166;2024-02-15T21:53:06;10.60;99.90
14357;DHT22;7262;48.764;9.166;2024-02-15T21:55:34;10.80;99.90
14357;DHT22;7262;48.764;9.166;2024-02-15T21:58:01;10.70;99.90
14357;DHT22;7262;48.764;9.166;2024-02-15T22:00:28;10.50;99.90
14357;DHT22;7262;48.764;9.166;2024-02-15T22:02:55;10.50;99.90
14357;DHT22;7262;48.764;9.166;2024-02-15T22:05:22;10.50;99.90
14357;DHT22;7262;48.764;9.166;2024-02-15T22:07:49;10.50;99.90
14357;DHT22;7262;48.764;9.166;2024-02-15T22:10:15;10.40;99.90
14357;DHT22;7262;48.764;9.166;2024-02-15T22:12:44;10.40;99.90
14357;DHT22;7262;48.764;9.166;2024-02-15T22:15:10;10.40;99.90
14357;DHT22;7262;48.764;9.166;2024-02-15T22:17:37;10.30;99.90
14357;DHT22;7262;48.764;9.166;2024-02-15T22:20:07;10.30;99.90